EDT,Max TemperatureF,Mean TemperatureF,Min TemperatureF,Max Dew PointF,MeanDew PointF,Min DewpointF,Max Humidity, Mean Humidity, Min Humidity, Max Sea Level PressureIn, Mean Sea Level PressureIn, Min Sea Level PressureIn, Max VisibilityMiles, Mean VisibilityMiles, Min VisibilityMiles, Max Wind SpeedMPH, Mean Wind SpeedMPH, Max Gust SpeedMPH,PrecipitationIn, CloudCover, Events, WindDirDegrees
2012-10-1,82,75,67,76,71,66,97,86,74,29.88,29.84,29.81,10,8,2,16,8,22,0.07,6,Rain,79
2012-10-2,84,80,76,79,76,73,97,88,79,30.01,29.88,29.80,10,10,6,17,10,25,0.21,4,Rain,192
2012-10-3,83,79,75,77,74,69,94,80,65,30.20,30.08,30.01,10,9,2,22,9,28,0.23,4,Rain,206
2012-10-4,84,77,70,70,69,66,93,79,65,30.24,30.20,30.16,10,9,2,12,3,16,0.00,3,,322
2012-10-5,84,74,64,69,64,60,100,72,44,30.17,30.11,30.04,10,9,6,10,3,15,0.00,0,,16
2012-10-6,82,71,60,69,65,61,100,79,58,30.04,29.97,29.90,10,8,2,14,5,16,0.00,1,,199
2012-10-7,81,71,60,73,67,55,100,87,74,30.08,29.98,29.94,10,6,0,16,6,23,0.02,4,Fog-Rain-Thunderstorm,358
2012-10-8,65,59,52,59,54,51,100,89,78,30.14,30.08,30.02,10,8,2,16,10,24,0.36,8,Rain,18
2012-10-9,61,57,52,54,53,51,93,86,78,30.12,30.09,30.06,10,7,2,12,6,17,0.00,8,,346
2012-10-10,73,61,49,59,54,48,100,79,57,30.14,30.09,30.00,10,4,0,13,3,16,0.00,2,Fog,302
2012-10-11,71,61,50,55,51,46,100,71,41,30.27,30.19,30.11,10,6,0,18,5,24,0.00,0,Fog,34
2012-10-12,77,62,46,58,50,46,100,71,41,30.28,30.21,30.16,10,7,2,12,3,17,0.00,0,,7
2012-10-13,74,64,53,52,50,47,83,65,46,30.40,30.34,30.28,10,10,10,17,10,21,0.00,0,,55
2012-10-14,79,66,52,64,57,49,100,73,45,30.30,30.20,30.06,10,10,10,9,4,17,0.00,0,,70
2012-10-15,80,71,61,70,66,61,100,81,62,30.04,29.87,29.76,10,9,2,20,7,25,0.12,2,Thunderstorm,224
2012-10-16,71,61,50,57,48,45,93,67,40,29.96,29.90,29.84,10,10,10,17,5,22,0.00,0,,10
2012-10-17,71,60,48,55,51,47,93,73,53,30.02,29.96,29.93,10,10,10,8,3,12,0.00,0,,51
2012-10-18,78,66,53,70,64,53,100,85,69,29.92,29.86,29.82,10,10,10,13,6,17,0.01,3,Rain,158
2012-10-19,79,67,55,70,61,46,97,66,35,29.83,29.79,29.76,10,9,2,13,5,16,0.23,3,Rain-Thunderstorm,257
2012-10-20,76,64,51,55,48,41,93,62,31,29.93,29.85,29.80,10,10,10,14,4,18,0.00,0,,267
2012-10-21,72,60,47,51,46,40,93,65,37,30.16,30.07,29.94,10,10,10,17,5,22,0.00,0,,18
2012-10-22,72,58,43,52,46,43,100,68,35,30.24,30.18,30.15,10,10,9,9,2,13,0.00,0,,74
2012-10-23,75,61,46,63,52,46,100,73,46,30.22,30.17,30.13,10,8,2,9,2,12,0.00,0,,138
2012-10-24,81,67,52,66,58,52,100,77,54,30.20,30.15,30.11,10,4,0,9,2,13,0.00,0,Fog,56
2012-10-25,81,70,58,66,61,57,100,77,54,30.13,30.10,30.05,10,5,0,17,7,23,0.00,0,Fog,58
2012-10-26,74,68,62,65,62,56,93,81,68,30.04,29.94,29.80,10,10,7,22,11,28,T,1,,26
2012-10-27,69,67,64,64,62,57,93,83,73,29.79,29.61,29.51,10,8,5,26,16,38,0.64,7,Rain,20
2012-10-28,67,63,58,57,52,50,77,68,58,29.56,29.53,29.49,10,10,10,31,11,45,0.00,5,,349
2012-10-29,60,55,49,50,39,33,77,59,40,29.56,29.52,29.47,10,10,10,21,10,38,0.00,4,,300
2012-10-30,60,55,49,37,34,32,59,50,40,29.70,29.56,29.46,10,10,10,17,9,28,0.00,5,,259
2012-10-31,62,53,43,42,35,30,80,58,36,29.80,29.75,29.70,10,10,10,16,7,24,0.00,0,,261